Sacramento, California
Current Conditions -  °F | °C
As of 12:53 AM on Tuesday 21 Oct 2014 (Local Time) from KSAC Reporting Station
Clear Clear  
Wind Chill: 56°   Ceiling: Unl
Heat Index: 56°   Visibility: 10mi
Dew Point: 49°   Wind: 6mph
Humidity: 77%   Direction: 200°SSW
Pressure: 30.05"   Gusts: NA
Location:  38.58°N, 121.49°W
Report Text: KSAC 210753Z AUTO 20005KT 10SM CLR 13/09 A3005 RMK AO2 SLP176 T01330094 402330122
Loading
Personal Weather Stations






























Interactive Weather Map
Tropical Storm Tracking
New forecast layout! Learn more

10-Day Weather Forecast

Advertisements
Track Severe Weather on mobile